sensor_id;sensor_type;location;lat;lon;timestamp;pressure;altitude;pressure_sealevel;temperature;humidity
26376;BME280;30544;42.196;24.336;2022-11-25T00:00:07;98835.41;;;10.38;56.29
26376;BME280;30544;42.196;24.336;2022-11-25T00:02:35;98825.63;;;10.31;55.78
26376;BME280;30544;42.196;24.336;2022-11-25T00:05:05;98818.88;;;10.43;56.48
26376;BME280;30544;42.196;24.336;2022-11-25T00:07:34;98823.28;;;10.61;54.44
26376;BME280;30544;42.196;24.336;2022-11-25T00:10:01;98827.06;;;10.55;54.49
26376;BME280;30544;42.196;24.336;2022-11-25T00:12:27;98827.09;;;10.38;54.91
26376;BME280;30544;42.196;24.336;2022-11-25T00:14:56;98826.97;;;10.28;54.92
26376;BME280;30544;42.196;24.336;2022-11-25T00:17:22;98833.50;;;10.39;54.40
26376;BME280;30544;42.196;24.336;2022-11-25T00:19:49;98833.84;;;10.64;53.75
26376;BME280;30544;42.196;24.336;2022-11-25T00:22:16;98830.09;;;10.53;52.87
26376;BME280;30544;42.196;24.336;2022-11-25T00:24:42;98827.16;;;10.60;52.99
26376;BME280;30544;42.196;24.336;2022-11-25T00:27:09;98833.84;;;10.42;53.25
26376;BME280;30544;42.196;24.336;2022-11-25T00:29:36;98837.56;;;10.53;53.06
26376;BME280;30544;42.196;24.336;2022-11-25T00:32:04;98835.72;;;10.59;53.75
26376;BME280;30544;42.196;24.336;2022-11-25T00:34:31;98838.34;;;10.48;52.89
26376;BME280;30544;42.196;24.336;2022-11-25T00:36:57;98845.63;;;10.54;52.61
26376;BME280;30544;42.196;24.336;2022-11-25T00:39:24;98842.28;;;10.52;52.86
26376;BME280;30544;42.196;24.336;2022-11-25T00:41:51;98840.34;;;10.53;53.11
26376;BME280;30544;42.196;24.336;2022-11-25T00:44:35;98833.22;;;10.40;54.46
26376;BME280;30544;42.196;24.336;2022-11-25T00:47:06;98828.97;;;10.16;54.85
26376;BME280;30544;42.196;24.336;2022-11-25T00:49:34;98825.75;;;10.41;54.18
26376;BME280;30544;42.196;24.336;2022-11-25T00:52:02;98835.41;;;10.38;54.18
26376;BME280;30544;42.196;24.336;2022-11-25T00:54:29;98828.94;;;10.49;54.59
26376;BME280;30544;42.196;24.336;2022-11-25T00:56:57;98833.06;;;10.47;54.23
26376;BME280;30544;42.196;24.336;2022-11-25T00:59:24;98837.63;;;10.19;54.99
26376;BME280;30544;42.196;24.336;2022-11-25T01:01:51;98835.28;;;10.28;55.11
26376;BME280;30544;42.196;24.336;2022-11-25T01:04:19;98844.13;;;10.25;55.10
26376;BME280;30544;42.196;24.336;2022-11-25T01:06:46;98846.63;;;10.10;55.06
26376;BME280;30544;42.196;24.336;2022-11-25T01:09:13;98848.84;;;10.24;55.63
26376;BME280;30544;42.196;24.336;2022-11-25T01:11:40;98856.78;;;10.21;55.28
26376;BME280;30544;42.196;24.336;2022-11-25T01:14:07;98853.50;;;10.24;54.93
26376;BME280;30544;42.196;24.336;2022-11-25T01:16:34;98852.31;;;10.20;54.96
26376;BME280;30544;42.196;24.336;2022-11-25T01:19:03;98851.81;;;10.23;56.16
26376;BME280;30544;42.196;24.336;2022-11-25T01:21:32;98850.50;;;10.09;56.23
26376;BME280;30544;42.196;24.336;2022-11-25T01:24:00;98858.56;;;10.10;56.79
26376;BME280;30544;42.196;24.336;2022-11-25T01:26:28;98870.13;;;10.07;56.20
26376;BME280;30544;42.196;24.336;2022-11-25T01:29:00;98870.66;;;10.21;56.28
26376;BME280;30544;42.196;24.336;2022-11-25T01:31:29;98868.47;;;10.23;56.04
26376;BME280;30544;42.196;24.336;2022-11-25T01:33:59;98865.09;;;10.04;56.90
26376;BME280;30544;42.196;24.336;2022-11-25T01:36:26;98871.06;;;9.96;56.62
26376;BME280;30544;42.196;24.336;2022-11-25T01:38:56;98868.28;;;10.13;56.55
26376;BME280;30544;42.196;24.336;2022-11-25T01:41:25;98871.00;;;10.08;56.63
26376;BME280;30544;42.196;24.336;2022-11-25T01:44:06;98870.72;;;10.09;56.44
26376;BME280;30544;42.196;24.336;2022-11-25T01:46:56;98861.31;;;10.10;57.06
26376;BME280;30544;42.196;24.336;2022-11-25T01:49:29;98871.91;;;9.97;57.40
26376;BME280;30544;42.196;24.336;2022-11-25T01:52:01;98874.59;;;10.08;56.47
26376;BME280;30544;42.196;24.336;2022-11-25T01:54:34;98859.72;;;10.14;56.14
26376;BME280;30544;42.196;24.336;2022-11-25T01:57:05;98872.06;;;10.23;55.75
26376;BME280;30544;42.196;24.336;2022-11-25T01:59:39;98862.91;;;10.23;55.43
26376;BME280;30544;42.196;24.336;2022-11-25T02:02:09;98861.34;;;10.27;55.47
26376;BME280;30544;42.196;24.336;2022-11-25T02:04:38;98853.66;;;10.17;55.11
26376;BME280;30544;42.196;24.336;2022-11-25T02:07:10;98871.84;;;10.25;55.18
26376;BME280;30544;42.196;24.336;2022-11-25T02:09:41;98867.13;;;10.26;55.06
26376;BME280;30544;42.196;24.336;2022-11-25T02:12:09;98865.78;;;10.28;54.73
26376;BME280;30544;42.196;24.336;2022-11-25T02:14:36;98867.97;;;10.26;55.54
26376;BME280;30544;42.196;24.336;2022-11-25T02:17:03;98860.16;;;10.23;54.72
26376;BME280;30544;42.196;24.336;2022-11-25T02:19:38;98865.84;;;10.33;54.51
26376;BME280;30544;42.196;24.336;2022-11-25T02:22:14;98867.63;;;10.22;54.80
26376;BME280;30544;42.196;24.336;2022-11-25T02:24:49;98862.91;;;10.23;55.68
26376;BME280;30544;42.196;24.336;2022-11-25T02:27:21;98868.78;;;10.10;55.86
26376;BME280;30544;42.196;24.336;2022-11-25T02:29:49;98866.44;;;10.02;55.16
26376;BME280;30544;42.196;24.336;2022-11-25T02:32:20;98861.13;;;10.17;55.37
26376;BME280;30544;42.196;24.336;2022-11-25T02:34:47;98856.44;;;10.34;55.16
26376;BME280;30544;42.196;24.336;2022-11-25T02:37:16;98868.69;;;10.05;56.17
26376;BME280;30544;42.196;24.336;2022-11-25T02:39:46;98868.13;;;10.03;55.56
26376;BME280;30544;42.196;24.336;2022-11-25T02:42:15;98862.75;;;10.13;55.65
26376;BME280;30544;42.196;24.336;2022-11-25T02:44:46;98858.56;;;10.10;55.43
26376;BME280;30544;42.196;24.336;2022-11-25T02:47:13;98864.34;;;9.92;55.59
26376;BME280;30544;42.196;24.336;2022-11-25T02:49:40;98858.19;;;10.07;56.05
26376;BME280;30544;42.196;24.336;2022-11-25T02:52:06;98861.22;;;10.05;56.04
26376;BME280;30544;42.196;24.336;2022-11-25T02:54:33;98855.19;;;10.08;55.55
26376;BME280;30544;42.196;24.336;2022-11-25T02:57:00;98865.19;;;10.09;56.02
26376;BME280;30544;42.196;24.336;2022-11-25T02:59:27;98864.38;;;10.26;55.66
26376;BME280;30544;42.196;24.336;2022-11-25T03:01:55;98860.03;;;10.18;55.19
26376;BME280;30544;42.196;24.336;2022-11-25T03:04:22;98855.53;;;10.12;55.43
26376;BME280;30544;42.196;24.336;2022-11-25T03:06:48;98868.44;;;10.06;56.22
26376;BME280;30544;42.196;24.336;2022-11-25T03:09:15;98858.94;;;10.19;55.63
26376;BME280;30544;42.196;24.336;2022-11-25T03:11:42;98857.78;;;10.15;56.04
26376;BME280;30544;42.196;24.336;2022-11-25T03:14:22;98852.59;;;10.02;56.39
26376;BME280;30544;42.196;24.336;2022-11-25T03:16:49;98845.09;;;10.02;56.36
26376;BME280;30544;42.196;24.336;2022-11-25T03:19:17;98845.09;;;10.02;56.19
26376;BME280;30544;42.196;24.336;2022-11-25T03:21:44;98846.13;;;10.13;56.43
26376;BME280;30544;42.196;24.336;2022-11-25T03:24:10;98845.94;;;10.03;56.26
26376;BME280;30544;42.196;24.336;2022-11-25T03:26:37;98845.81;;;9.92;56.55
26376;BME280;30544;42.196;24.336;2022-11-25T03:29:04;98849.88;;;10.07;56.13
26376;BME280;30544;42.196;24.336;2022-11-25T03:31:32;98849.78;;;10.18;56.63
26376;BME280;30544;42.196;24.336;2022-11-25T03:33:58;98847.63;;;10.04;56.60
26376;BME280;30544;42.196;24.336;2022-11-25T03:36:26;98853.84;;;10.11;55.88
26376;BME280;30544;42.196;24.336;2022-11-25T03:38:53;98858.81;;;10.09;55.80
26376;BME280;30544;42.196;24.336;2022-11-25T03:41:20;98860.63;;;10.20;56.09
26376;BME280;30544;42.196;24.336;2022-11-25T03:43:47;98862.75;;;10.13;56.24
26376;BME280;30544;42.196;24.336;2022-11-25T03:46:14;98865.34;;;10.36;55.73
26376;BME280;30544;42.196;24.336;2022-11-25T03:48:40;98873.50;;;10.26;55.64
26376;BME280;30544;42.196;24.336;2022-11-25T03:51:07;98885.25;;;10.16;56.43
26376;BME280;30544;42.196;24.336;2022-11-25T03:53:35;98879.03;;;10.09;54.95
26376;BME280;30544;42.196;24.336;2022-11-25T03:56:02;98880.84;;;10.20;55.26
26376;BME280;30544;42.196;24.336;2022-11-25T03:58:29;98881.72;;;10.04;56.22
26376;BME280;30544;42.196;24.336;2022-11-25T04:00:58;98875.94;;;10.22;55.06
26376;BME280;30544;42.196;24.336;2022-11-25T04:03:25;98888.34;;;10.20;55.70
26376;BME280;30544;42.196;24.336;2022-11-25T04:05:52;98885.44;;;10.10;54.79
26376;BME280;30544;42.196;24.336;2022-11-25T04:08:19;98886.66;;;10.19;54.74
26376;BME280;30544;42.196;24.336;2022-11-25T04:10:47;98891.03;;;10.15;54.60
26376;BME280;30544;42.196;24.336;2022-11-25T04:13:14;98897.63;;;10.26;55.37
26376;BME280;30544;42.196;24.336;2022-11-25T04:15:43;98898.00;;;10.17;55.99
26376;BME280;30544;42.196;24.336;2022-11-25T04:18:10;98900.53;;;10.19;55.24
26376;BME280;30544;42.196;24.336;2022-11-25T04:20:37;98914.13;;;10.20;55.10
26376;BME280;30544;42.196;24.336;2022-11-25T04:23:04;98912.63;;;10.13;55.69
26376;BME280;30544;42.196;24.336;2022-11-25T04:25:31;98916.50;;;10.29;54.84
26376;BME280;30544;42.196;24.336;2022-11-25T04:28:03;98924.72;;;10.23;54.27
26376;BME280;30544;42.196;24.336;2022-11-25T04:30:30;98931.84;;;10.03;54.46
26376;BME280;30544;42.196;24.336;2022-11-25T04:32:57;98927.34;;;10.30;54.73
26376;BME280;30544;42.196;24.336;2022-11-25T04:35:24;98942.69;;;10.21;55.25
26376;BME280;30544;42.196;24.336;2022-11-25T04:37:51;98932.09;;;10.18;55.37
26376;BME280;30544;42.196;24.336;2022-11-25T04:40:18;98935.59;;;10.25;54.40
26376;BME280;30544;42.196;24.336;2022-11-25T04:42:44;98943.75;;;10.20;55.16
26376;BME280;30544;42.196;24.336;2022-11-25T04:45:14;98938.16;;;10.15;55.17
26376;BME280;30544;42.196;24.336;2022-11-25T04:47:42;98939.19;;;10.26;55.61
26376;BME280;30544;42.196;24.336;2022-11-25T04:50:12;98941.34;;;10.23;54.92
26376;BME280;30544;42.196;24.336;2022-11-25T04:52:42;98948.72;;;10.18;54.51
26376;BME280;30544;42.196;24.336;2022-11-25T04:55:09;98953.28;;;10.24;53.86
26376;BME280;30544;42.196;24.336;2022-11-25T04:57:36;98958.31;;;10.10;55.36
26376;BME280;30544;42.196;24.336;2022-11-25T05:00:04;98962.03;;;10.33;54.76
26376;BME280;30544;42.196;24.336;2022-11-25T05:02:31;98958.13;;;10.17;54.52
26376;BME280;30544;42.196;24.336;2022-11-25T05:04:58;98971.88;;;9.95;55.76
26376;BME280;30544;42.196;24.336;2022-11-25T05:07:26;98966.94;;;10.14;55.36
26376;BME280;30544;42.196;24.336;2022-11-25T05:09:53;98971.41;;;10.15;55.39
26376;BME280;30544;42.196;24.336;2022-11-25T05:12:23;98982.28;;;10.05;55.57
26376;BME280;30544;42.196;24.336;2022-11-25T05:14:50;98977.97;;;10.09;56.67
26376;BME280;30544;42.196;24.336;2022-11-25T05:17:19;98985.94;;;10.22;55.72
26376;BME280;30544;42.196;24.336;2022-11-25T05:19:48;98975.78;;;10.11;56.53
26376;BME280;30544;42.196;24.336;2022-11-25T05:22:17;98981.81;;;10.08;56.98
26376;BME280;30544;42.196;24.336;2022-11-25T05:24:44;98979.78;;;10.20;55.85
26376;BME280;30544;42.196;24.336;2022-11-25T05:27:10;98982.66;;;10.08;56.44
26376;BME280;30544;42.196;24.336;2022-11-25T05:29:38;98989.44;;;10.01;56.47
26376;BME280;30544;42.196;24.336;2022-11-25T05:32:05;98988.88;;;10.15;56.84
26376;BME280;30544;42.196;24.336;2022-11-25T05:34:32;98987.84;;;10.05;56.12
26376;BME280;30544;42.196;24.336;2022-11-25T05:37:00;98992.66;;;10.09;56.01
26376;BME280;30544;42.196;24.336;2022-11-25T05:39:26;98997.03;;;10.22;56.20
26376;BME280;30544;42.196;24.336;2022-11-25T05:41:53;98993.56;;;10.15;56.19
26376;BME280;30544;42.196;24.336;2022-11-25T05:44:20;99008.72;;;10.24;56.64
26376;BME280;30544;42.196;24.336;2022-11-25T05:46:47;99006.81;;;9.96;57.31
26376;BME280;30544;42.196;24.336;2022-11-25T05:49:16;99011.63;;;10.17;56.00
26376;BME280;30544;42.196;24.336;2022-11-25T05:51:44;99005.75;;;10.14;57.08
26376;BME280;30544;42.196;24.336;2022-11-25T05:54:14;99013.22;;;10.13;56.74
26376;BME280;30544;42.196;24.336;2022-11-25T05:56:41;99016.91;;;10.19;56.48
26376;BME280;30544;42.196;24.336;2022-11-25T05:59:08;99009.81;;;10.23;55.89
26376;BME280;30544;42.196;24.336;2022-11-25T06:01:35;99015.78;;;10.32;55.89
26376;BME280;30544;42.196;24.336;2022-11-25T06:04:03;99022.56;;;10.24;55.75
26376;BME280;30544;42.196;24.336;2022-11-25T06:06:30;99023.28;;;10.19;56.80
26376;BME280;30544;42.196;24.336;2022-11-25T06:08:57;99029.94;;;10.18;56.03
26376;BME280;30544;42.196;24.336;2022-11-25T06:11:25;99028.63;;;10.21;55.59
26376;BME280;30544;42.196;24.336;2022-11-25T06:13:55;99032.69;;;10.30;55.20
26376;BME280;30544;42.196;24.336;2022-11-25T06:16:22;99042.94;;;10.30;55.99
26376;BME280;30544;42.196;24.336;2022-11-25T06:18:49;99039.06;;;10.31;55.22
26376;BME280;30544;42.196;24.336;2022-11-25T06:21:16;99043.19;;;10.28;55.97
26376;BME280;30544;42.196;24.336;2022-11-25T06:23:43;99051.19;;;10.41;55.77
26376;BME280;30544;42.196;24.336;2022-11-25T06:26:13;99067.69;;;10.36;55.46
26376;BME280;30544;42.196;24.336;2022-11-25T06:28:41;99061.91;;;10.54;55.51
26376;BME280;30544;42.196;24.336;2022-11-25T06:31:10;99071.31;;;10.37;55.34
26376;BME280;30544;42.196;24.336;2022-11-25T06:33:37;99078.78;;;10.36;55.32
26376;BME280;30544;42.196;24.336;2022-11-25T06:36:05;99088.03;;;10.25;54.71
26376;BME280;30544;42.196;24.336;2022-11-25T06:38:35;99090.00;;;10.41;54.68
26376;BME280;30544;42.196;24.336;2022-11-25T06:41:03;99094.75;;;10.29;55.10
26376;BME280;30544;42.196;24.336;2022-11-25T06:43:31;99111.94;;;10.43;54.07
26376;BME280;30544;42.196;24.336;2022-11-25T06:46:04;99107.03;;;10.33;54.46
26376;BME280;30544;42.196;24.336;2022-11-25T06:48:31;99112.22;;;10.30;55.39
26376;BME280;30544;42.196;24.336;2022-11-25T06:51:00;99121.50;;;10.52;54.68
26376;BME280;30544;42.196;24.336;2022-11-25T06:53:27;99119.94;;;10.28;54.35
26376;BME280;30544;42.196;24.336;2022-11-25T06:56:03;99128.34;;;10.33;55.05
26376;BME280;30544;42.196;24.336;2022-11-25T06:58:30;99134.06;;;10.26;55.11
26376;BME280;30544;42.196;24.336;2022-11-25T07:01:00;99145.69;;;10.57;54.49
26376;BME280;30544;42.196;24.336;2022-11-25T07:03:28;99144.44;;;10.47;55.46
26376;BME280;30544;42.196;24.336;2022-11-25T07:05:55;99143.53;;;10.59;55.45
26376;BME280;30544;42.196;24.336;2022-11-25T07:08:23;99150.09;;;10.69;55.29
26376;BME280;30544;42.196;24.336;2022-11-25T07:10:52;99156.47;;;10.70;54.92
26376;BME280;30544;42.196;24.336;2022-11-25T07:13:19;99158.69;;;10.68;55.19
26376;BME280;30544;42.196;24.336;2022-11-25T07:15:46;99167.63;;;10.58;54.74
26376;BME280;30544;42.196;24.336;2022-11-25T07:18:13;99162.97;;;10.59;54.79
26376;BME280;30544;42.196;24.336;2022-11-25T07:20:41;99170.19;;;10.60;54.97
26376;BME280;30544;42.196;24.336;2022-11-25T07:23:08;99166.13;;;10.96;54.33
26376;BME280;30544;42.196;24.336;2022-11-25T07:25:34;99169.47;;;10.98;54.53
26376;BME280;30544;42.196;24.336;2022-11-25T07:28:01;99159.34;;;11.25;53.94
26376;BME280;30544;42.196;24.336;2022-11-25T07:30:28;99168.13;;;11.00;53.47
26376;BME280;30544;42.196;24.336;2022-11-25T07:32:55;99168.78;;;11.07;53.63
26376;BME280;30544;42.196;24.336;2022-11-25T07:35:23;99165.41;;;11.05;53.05
26376;BME280;30544;42.196;24.336;2022-11-25T07:37:51;99165.69;;;11.04;53.65
26376;BME280;30544;42.196;24.336;2022-11-25T07:40:18;99167.63;;;11.03;53.68
26376;BME280;30544;42.196;24.336;2022-11-25T07:42:45;99167.09;;;11.40;53.02
26376;BME280;30544;42.196;24.336;2022-11-25T07:45:12;99168.25;;;11.99;51.45
26376;BME280;30544;42.196;24.336;2022-11-25T07:47:38;99163.81;;;12.25;50.91
26376;BME280;30544;42.196;24.336;2022-11-25T07:50:07;99168.94;;;12.87;49.66
26376;BME280;30544;42.196;24.336;2022-11-25T07:52:36;99165.88;;;13.16;48.76
26376;BME280;30544;42.196;24.336;2022-11-25T07:55:05;99169.81;;;12.93;47.81
26376;BME280;30544;42.196;24.336;2022-11-25T07:57:32;99168.53;;;12.74;46.64
26376;BME280;30544;42.196;24.336;2022-11-25T07:59:58;99175.78;;;12.26;48.07
26376;BME280;30544;42.196;24.336;2022-11-25T08:02:25;99172.88;;;12.91;46.64
26376;BME280;30544;42.196;24.336;2022-11-25T08:04:52;99180.34;;;13.13;45.78
26376;BME280;30544;42.196;24.336;2022-11-25T08:07:18;99177.91;;;13.21;45.38
26376;BME280;30544;42.196;24.336;2022-11-25T08:09:45;99175.56;;;12.54;45.91
26376;BME280;30544;42.196;24.336;2022-11-25T08:12:13;99188.78;;;12.42;46.93
26376;BME280;30544;42.196;24.336;2022-11-25T08:14:40;99190.69;;;12.63;46.07
26376;BME280;30544;42.196;24.336;2022-11-25T08:17:07;99181.59;;;12.73;46.16
26376;BME280;30544;42.196;24.336;2022-11-25T08:19:34;99174.63;;;12.71;46.42
26376;BME280;30544;42.196;24.336;2022-11-25T08:22:01;99180.47;;;12.69;46.15
26376;BME280;30544;42.196;24.336;2022-11-25T08:24:28;99173.25;;;13.00;45.60
26376;BME280;30544;42.196;24.336;2022-11-25T08:26:57;99178.81;;;12.73;45.77
26376;BME280;30544;42.196;24.336;2022-11-25T08:29:27;99169.47;;;12.84;46.07
26376;BME280;30544;42.196;24.336;2022-11-25T08:31:56;99185.81;;;12.49;46.08
26376;BME280;30544;42.196;24.336;2022-11-25T08:34:24;99185.88;;;12.81;45.27
26376;BME280;30544;42.196;24.336;2022-11-25T08:36:51;99185.56;;;13.09;44.73
26376;BME280;30544;42.196;24.336;2022-11-25T08:39:20;99187.22;;;13.05;44.13
26376;BME280;30544;42.196;24.336;2022-11-25T08:41:47;99192.69;;;13.59;43.49
26376;BME280;30544;42.196;24.336;2022-11-25T08:44:14;99191.50;;;13.50;43.67
26376;BME280;30544;42.196;24.336;2022-11-25T08:46:43;99186.44;;;13.84;43.00
26376;BME280;30544;42.196;24.336;2022-11-25T08:49:13;99185.78;;;13.67;43.23
26376;BME280;30544;42.196;24.336;2022-11-25T08:51:43;99189.69;;;13.71;43.02
26376;BME280;30544;42.196;24.336;2022-11-25T08:54:10;99188.53;;;13.62;42.91
26376;BME280;30544;42.196;24.336;2022-11-25T08:56:37;99193.06;;;13.09;43.76
26376;BME280;30544;42.196;24.336;2022-11-25T08:59:04;99202.50;;;13.03;43.19
26376;BME280;30544;42.196;24.336;2022-11-25T09:01:31;99187.78;;;13.34;43.00
26376;BME280;30544;42.196;24.336;2022-11-25T09:04:01;99176.78;;;13.60;41.01
26376;BME280;30544;42.196;24.336;2022-11-25T09:06:28;99180.97;;;14.04;40.97
26376;BME280;30544;42.196;24.336;2022-11-25T09:08:56;99185.00;;;14.34;40.28
26376;BME280;30544;42.196;24.336;2022-11-25T09:11:24;99186.25;;;13.53;40.75
26376;BME280;30544;42.196;24.336;2022-11-25T09:13:51;99187.19;;;13.32;40.89
26376;BME280;30544;42.196;24.336;2022-11-25T09:16:18;99182.91;;;13.57;40.38
26376;BME280;30544;42.196;24.336;2022-11-25T09:18:45;99188.03;;;13.75;40.15
26376;BME280;30544;42.196;24.336;2022-11-25T09:21:16;99184.41;;;13.69;40.89
26376;BME280;30544;42.196;24.336;2022-11-25T09:23:43;99192.69;;;13.59;40.68
26376;BME280;30544;42.196;24.336;2022-11-25T09:26:19;99188.91;;;13.38;40.42
26376;BME280;30544;42.196;24.336;2022-11-25T09:28:46;99186.41;;;13.79;40.42
26376;BME280;30544;42.196;24.336;2022-11-25T09:31:13;99178.81;;;14.22;40.32
26376;BME280;30544;42.196;24.336;2022-11-25T09:33:39;99180.63;;;13.91;40.13
26376;BME280;30544;42.196;24.336;2022-11-25T09:36:10;99174.81;;;13.97;38.92
26376;BME280;30544;42.196;24.336;2022-11-25T09:38:38;99176.31;;;14.25;39.06
26376;BME280;30544;42.196;24.336;2022-11-25T09:44:37;99157.66;;;13.73;38.20
26376;BME280;30544;42.196;24.336;2022-11-25T09:47:32;99154.09;;;13.78;38.62
26376;BME280;30544;42.196;24.336;2022-11-25T09:50:09;99160.41;;;14.21;38.01
26376;BME280;30544;42.196;24.336;2022-11-25T09:52:44;99170.06;;;13.98;38.55
26376;BME280;30544;42.196;24.336;2022-11-25T09:55:14;99169.59;;;13.64;39.78
26376;BME280;30544;42.196;24.336;2022-11-25T09:57:51;99172.13;;;13.70;39.24
26376;BME280;30544;42.196;24.336;2022-11-25T10:00:22;99187.88;;;13.17;40.01
26376;BME280;30544;42.196;24.336;2022-11-25T10:02:57;99162.03;;;13.22;39.63
26376;BME280;30544;42.196;24.336;2022-11-25T10:05:29;99176.13;;;13.42;39.69
26376;BME280;30544;42.196;24.336;2022-11-25T10:08:00;99179.00;;;13.52;40.56
26376;BME280;30544;42.196;24.336;2022-11-25T10:10:36;99181.28;;;13.61;40.92
26376;BME280;30544;42.196;24.336;2022-11-25T10:13:18;99162.97;;;13.75;39.85
26376;BME280;30544;42.196;24.336;2022-11-25T10:15:48;99169.34;;;14.23;39.31
26376;BME280;30544;42.196;24.336;2022-11-25T10:18:19;99177.75;;;14.33;39.32
26376;BME280;30544;42.196;24.336;2022-11-25T10:20:49;99174.34;;;14.21;39.15
26376;BME280;30544;42.196;24.336;2022-11-25T10:23:21;99168.69;;;14.05;39.15
26376;BME280;30544;42.196;24.336;2022-11-25T10:25:55;99160.41;;;14.26;38.62
26376;BME280;30544;42.196;24.336;2022-11-25T10:28:24;99164.72;;;14.49;38.52
26376;BME280;30544;42.196;24.336;2022-11-25T10:31:00;99156.94;;;13.93;40.08
26376;BME280;30544;42.196;24.336;2022-11-25T10:33:31;99159.78;;;14.03;38.88
26376;BME280;30544;42.196;24.336;2022-11-25T10:36:00;99150.88;;;14.06;38.87
26376;BME280;30544;42.196;24.336;2022-11-25T10:38:38;99154.75;;;14.00;39.29
26376;BME280;30544;42.196;24.336;2022-11-25T10:41:12;99159.69;;;13.88;39.77
26376;BME280;30544;42.196;24.336;2022-11-25T10:43:41;99166.56;;;13.70;40.14
26376;BME280;30544;42.196;24.336;2022-11-25T10:46:17;99159.06;;;14.28;39.36
26376;BME280;30544;42.196;24.336;2022-11-25T10:48:53;99157.47;;;13.90;40.29
26376;BME280;30544;42.196;24.336;2022-11-25T10:51:36;99150.84;;;13.96;39.33
26376;BME280;30544;42.196;24.336;2022-11-25T10:54:25;99152.81;;;13.59;40.22
26376;BME280;30544;42.196;24.336;2022-11-25T10:56:54;99157.84;;;14.09;39.74
26376;BME280;30544;42.196;24.336;2022-11-25T10:59:28;99148.56;;;13.93;39.51
26376;BME280;30544;42.196;24.336;2022-11-25T11:02:13;99158.16;;;14.12;39.32
26376;BME280;30544;42.196;24.336;2022-11-25T11:04:58;99147.84;;;14.13;39.65
26376;BME280;30544;42.196;24.336;2022-11-25T11:07:27;99152.00;;;14.10;39.69
26376;BME280;30544;42.196;24.336;2022-11-25T11:09:54;99161.66;;;13.88;39.45
26376;BME280;30544;42.196;24.336;2022-11-25T11:12:35;99140.38;;;14.39;39.13
26376;BME280;30544;42.196;24.336;2022-11-25T11:15:14;99151.50;;;14.24;39.38
26376;BME280;30544;42.196;24.336;2022-11-25T11:17:41;99146.13;;;14.07;39.00
26376;BME280;30544;42.196;24.336;2022-11-25T11:20:16;99155.44;;;14.33;39.07
26376;BME280;30544;42.196;24.336;2022-11-25T11:22:48;99149.25;;;14.15;39.51
26376;BME280;30544;42.196;24.336;2022-11-25T11:25:32;99137.13;;;14.67;39.46
26376;BME280;30544;42.196;24.336;2022-11-25T11:28:25;99151.66;;;14.64;38.45
26376;BME280;30544;42.196;24.336;2022-11-25T11:30:59;99149.75;;;15.00;38.23
26376;BME280;30544;42.196;24.336;2022-11-25T11:33:30;99151.38;;;14.71;37.89
26376;BME280;30544;42.196;24.336;2022-11-25T11:38:52;99166.78;;;14.99;37.72
26376;BME280;30544;42.196;24.336;2022-11-25T11:41:28;99164.56;;;14.96;37.79
26376;BME280;30544;42.196;24.336;2022-11-25T11:44:07;99158.03;;;14.44;38.53
26376;BME280;30544;42.196;24.336;2022-11-25T11:46:48;99164.50;;;14.75;38.83
26376;BME280;30544;42.196;24.336;2022-11-25T11:49:38;99166.13;;;14.46;38.34
26376;BME280;30544;42.196;24.336;2022-11-25T11:52:20;99173.06;;;14.43;39.13
26376;BME280;30544;42.196;24.336;2022-11-25T11:54:52;99172.88;;;14.70;38.40
26376;BME280;30544;42.196;24.336;2022-11-25T11:57:27;99176.53;;;14.81;37.56
26376;BME280;30544;42.196;24.336;2022-11-25T12:00:03;99172.88;;;14.70;38.47
26376;BME280;30544;42.196;24.336;2022-11-25T12:02:38;99185.78;;;14.19;38.36
26376;BME280;30544;42.196;24.336;2022-11-25T12:05:17;99178.41;;;14.55;38.19
26376;BME280;30544;42.196;24.336;2022-11-25T12:08:03;99171.19;;;14.64;38.49
26376;BME280;30544;42.196;24.336;2022-11-25T12:10:37;99183.28;;;14.23;39.05
26376;BME280;30544;42.196;24.336;2022-11-25T12:13:13;99174.69;;;14.39;38.07
26376;BME280;30544;42.196;24.336;2022-11-25T12:15:48;99173.78;;;14.19;37.67
26376;BME280;30544;42.196;24.336;2022-11-25T12:18:19;99185.69;;;13.99;38.03
26376;BME280;30544;42.196;24.336;2022-11-25T12:20:53;99186.31;;;14.11;38.00
26376;BME280;30544;42.196;24.336;2022-11-25T12:23:27;99180.41;;;14.07;38.00
26376;BME280;30544;42.196;24.336;2022-11-25T12:26:00;99189.31;;;13.94;38.36
26376;BME280;30544;42.196;24.336;2022-11-25T12:28:34;99208.00;;;13.57;39.25
26376;BME280;30544;42.196;24.336;2022-11-25T12:31:16;99196.25;;;13.49;39.82
26376;BME280;30544;42.196;24.336;2022-11-25T12:33:52;99204.03;;;13.47;40.44
26376;BME280;30544;42.196;24.336;2022-11-25T12:36:27;99195.28;;;13.34;40.53
26376;BME280;30544;42.196;24.336;2022-11-25T12:39:00;99207.28;;;13.39;40.60
26376;BME280;30544;42.196;24.336;2022-11-25T12:41:39;99201.19;;;13.42;40.27
26376;BME280;30544;42.196;24.336;2022-11-25T12:44:13;99207.38;;;13.49;40.23
26376;BME280;30544;42.196;24.336;2022-11-25T12:46:45;99210.50;;;13.58;40.63
26376;BME280;30544;42.196;24.336;2022-11-25T12:49:18;99219.91;;;13.47;40.97
26376;BME280;30544;42.196;24.336;2022-11-25T12:52:09;99220.72;;;13.79;41.29
26376;BME280;30544;42.196;24.336;2022-11-25T13:00:33;99215.41;;;13.78;42.42
26376;BME280;30544;42.196;24.336;2022-11-25T13:03:28;99224.09;;;13.49;42.10
26376;BME280;30544;42.196;24.336;2022-11-25T13:06:19;99225.59;;;13.62;42.24
26376;BME280;30544;42.196;24.336;2022-11-25T13:08:55;99232.78;;;13.58;42.56
26376;BME280;30544;42.196;24.336;2022-11-25T13:14:30;99235.16;;;13.76;41.70
26376;BME280;30544;42.196;24.336;2022-11-25T13:17:09;99245.97;;;13.31;42.38
26376;BME280;30544;42.196;24.336;2022-11-25T13:19:38;99238.38;;;13.26;42.27